Time;durP1;ratioP1;P1;durP2;ratioP2;P2;SDS_P1;SDS_P2;PMS_P1;PMS_P2;Temp;Humidity;BMP_temperature;BMP_pressure;BME280_temperature;BME280_humidity;BME280_pressure;Samples;Min_cycle;Max_cycle;Signal;HPM_P1;HPM_P2
2023/06/09 00:02:23;;;;;;;5.03;2.80;;;11.70;99.90;;;;;;4991796;28;20046;-76
2023/06/09 00:04:49;;;;;;;4.95;2.53;;;11.70;99.90;;;;;;4980593;28;20522;-75
2023/06/09 00:07:15;;;;;;;5.35;2.78;;;11.70;99.90;;;;;;4981207;28;20038;-76
2023/06/09 00:09:42;;;;;;;;;;;11.70;99.90;;;;;;4992740;28;20530;-75
2023/06/09 00:12:08;;;;;;;3.45;2.20;;;11.70;99.90;;;;;;4976057;28;20071;-75
2023/06/09 00:14:34;;;;;;;7.00;2.78;;;11.70;99.90;;;;;;4965815;28;20107;-75
2023/06/09 00:16:59;;;;;;;4.50;2.70;;;11.60;99.90;;;;;;5012963;28;20042;-75
2023/06/09 00:19:26;;;;;;;7.60;2.90;;;11.70;99.90;;;;;;4974285;28;20084;-76
2023/06/09 00:21:53;;;;;;;6.80;3.13;;;11.60;99.90;;;;;;4994539;28;20040;-74
2023/06/09 00:24:23;;;;;;;9.32;3.88;;;11.60;99.90;;;;;;4990287;28;20533;-74
2023/06/09 00:26:50;;;;;;;5.47;2.80;;;11.70;99.90;;;;;;4994873;28;20050;-75
2023/06/09 00:29:18;;;;;;;7.30;4.10;;;11.60;99.90;;;;;;4994605;28;20096;-74
2023/06/09 00:31:44;;;;;;;6.72;3.80;;;11.60;99.90;;;;;;4994833;28;20052;-74
2023/06/09 00:34:10;;;;;;;;;;;11.60;99.90;;;;;;5002468;28;20038;-74
2023/06/09 00:36:36;;;;;;;4.30;2.40;;;11.60;99.90;;;;;;4978455;28;19964;-74
2023/06/09 00:39:02;;;;;;;4.20;2.28;;;11.60;99.90;;;;;;4990565;28;20454;-73
2023/06/09 00:41:28;;;;;;;5.20;2.47;;;11.60;99.90;;;;;;4988496;28;20046;-74
2023/06/09 00:43:55;;;;;;;4.50;2.25;;;11.60;99.90;;;;;;4989165;28;20038;-74
2023/06/09 00:46:22;;;;;;;4.13;2.20;;;11.60;99.90;;;;;;4993059;28;20085;-74
2023/06/09 00:48:48;;;;;;;4.70;2.17;;;11.60;99.90;;;;;;4989343;28;20059;-73
2023/06/09 00:51:15;;;;;;;3.70;2.17;;;11.60;99.90;;;;;;4989240;28;20466;-74
2023/06/09 00:53:40;;;;;;;;;;;11.60;99.90;;;;;;4996575;28;20073;-74
2023/06/09 00:56:07;;;;;;;4.25;2.30;;;11.60;99.90;;;;;;4991750;28;19972;-74
2023/06/09 00:58:33;;;;;;;7.22;3.88;;;11.60;99.90;;;;;;4989292;28;20060;-74
2023/06/09 01:00:59;;;;;;;;;;;11.60;99.90;;;;;;4992159;28;20091;-74
2023/06/09 01:03:26;;;;;;;5.25;3.05;;;11.60;99.90;;;;;;4992167;28;19921;-75
2023/06/09 01:06:02;;;;;;;8.18;3.33;;;11.60;99.90;;;;;;4973428;28;20076;-74
2023/06/09 01:08:39;;;;;;;5.68;3.30;;;11.50;99.90;;;;;;5009540;28;20118;-73
2023/06/09 01:11:21;;;;;;;5.47;2.83;;;11.60;99.90;;;;;;4990934;28;20096;-74
2023/06/09 01:13:53;;;;;;;6.03;3.35;;;11.60;99.90;;;;;;4990573;28;20034;-74
2023/06/09 01:16:28;;;;;;;6.18;3.30;;;11.60;99.90;;;;;;4990460;28;20108;-74
2023/06/09 01:18:59;;;;;;;5.70;3.47;;;11.60;99.90;;;;;;4989926;28;20046;-74
2023/06/09 01:21:41;;;;;;;7.90;3.40;;;11.50;99.90;;;;;;4991253;28;20062;-74
2023/06/09 01:24:45;;;;;;;11.48;5.22;;;11.60;99.90;;;;;;4988673;28;20062;-74
2023/06/09 01:27:14;;;;;;;5.22;3.33;;;11.60;99.90;;;;;;4986624;28;20445;-73
2023/06/09 01:29:43;;;;;;;4.88;2.90;;;11.60;99.90;;;;;;5004048;28;20096;-74
2023/06/09 01:32:10;;;;;;;10.43;4.80;;;11.60;99.90;;;;;;4992550;28;20061;-74
2023/06/09 01:34:36;;;;;;;5.18;3.42;;;11.50;99.90;;;;;;5007069;28;20041;-74
2023/06/09 01:37:02;;;;;;;5.72;3.80;;;11.60;99.90;;;;;;4991931;28;20134;-73
2023/06/09 01:39:28;;;;;;;7.38;3.72;;;11.60;99.90;;;;;;4960161;28;20088;-74
2023/06/09 01:41:53;;;;;;;8.75;3.55;;;11.60;99.90;;;;;;4991579;28;20498;-74
2023/06/09 01:44:19;;;;;;;9.50;3.88;;;11.60;99.90;;;;;;5007514;28;20140;-73
2023/06/09 01:46:45;;;;;;;6.93;3.58;;;11.70;99.90;;;;;;4989764;28;20045;-74
2023/06/09 01:49:16;;;;;;;8.38;3.78;;;11.70;99.90;;;;;;5006740;28;20652;-73
2023/06/09 01:52:00;;;;;;;6.65;3.47;;;11.70;99.90;;;;;;4987436;28;20053;-74
2023/06/09 01:54:35;;;;;;;7.13;3.75;;;11.70;99.90;;;;;;4985900;28;20502;-74
2023/06/09 01:57:33;;;;;;;5.97;3.70;;;11.70;99.90;;;;;;4973437;28;20080;-73
2023/06/09 02:00:05;;;;;;;8.40;3.47;;;11.70;99.90;;;;;;5009699;28;20549;-74
2023/06/09 02:02:33;;;;;;;8.95;3.42;;;11.70;99.90;;;;;;4972595;28;20409;-74
2023/06/09 02:05:00;;;;;;;6.90;3.15;;;11.70;99.90;;;;;;4989311;28;20049;-74
2023/06/09 02:07:27;;;;;;;8.80;3.45;;;11.60;99.90;;;;;;4987600;28;20054;-74
2023/06/09 02:09:54;;;;;;;7.28;3.30;;;11.70;99.90;;;;;;4968711;28;20125;-74
2023/06/09 02:12:20;;;;;;;7.90;3.60;;;11.70;99.90;;;;;;4983333;28;20113;-74
2023/06/09 02:14:46;;;;;;;6.38;3.05;;;11.70;99.90;;;;;;4971995;28;20553;-75
2023/06/09 02:17:12;;;;;;;10.18;4.63;;;11.70;99.90;;;;;;4988554;28;20105;-74
2023/06/09 02:19:38;;;;;;;5.88;3.38;;;11.70;99.90;;;;;;4977010;28;20054;-74
2023/06/09 02:22:08;;;;;;;8.38;3.45;;;11.70;99.90;;;;;;4990429;28;20045;-74
2023/06/09 02:24:34;;;;;;;9.80;4.80;;;11.70;99.90;;;;;;4986540;28;20050;-74
2023/06/09 02:27:01;;;;;;;;;;;11.70;99.90;;;;;;5012690;28;20046;-74
2023/06/09 02:29:27;;;;;;;6.15;3.35;;;11.70;99.90;;;;;;4990154;28;19933;-74
2023/06/09 02:31:55;;;;;;;5.70;3.53;;;11.70;99.90;;;;;;4990570;28;20054;-74
2023/06/09 02:34:22;;;;;;;7.75;3.40;;;11.70;99.90;;;;;;5024864;28;20702;-74
2023/06/09 02:36:54;;;;;;;6.22;3.03;;;11.70;99.90;;;;;;4991959;28;20057;-74
2023/06/09 02:39:20;;;;;;;6.55;3.15;;;11.60;99.90;;;;;;4974441;28;20406;-74
2023/06/09 02:41:46;;;;;;;7.88;3.42;;;11.60;99.90;;;;;;4990333;28;20041;-74
2023/06/09 02:44:12;;;;;;;6.00;3.10;;;11.60;99.90;;;;;;5009076;28;20049;-75
2023/06/09 02:46:40;;;;;;;7.05;3.47;;;11.70;99.90;;;;;;4977020;28;20049;-74
2023/06/09 02:49:06;;;;;;;8.20;3.85;;;11.60;99.90;;;;;;4992054;28;20148;-74
2023/06/09 02:51:32;;;;;;;6.03;3.10;;;11.50;99.90;;;;;;4990340;28;20053;-74
2023/06/09 02:53:58;;;;;;;8.00;3.90;;;11.60;99.90;;;;;;4989905;28;20050;-74
2023/06/09 02:56:23;;;;;;;7.80;3.65;;;11.60;99.90;;;;;;4991643;28;20069;-74
2023/06/09 02:58:50;;;;;;;6.03;3.35;;;11.60;99.90;;;;;;4981099;28;20432;-74
2023/06/09 03:01:19;;;;;;;7.28;3.35;;;11.60;99.90;;;;;;4975153;28;20538;-74
2023/06/09 03:03:45;;;;;;;7.70;3.78;;;11.60;99.90;;;;;;4991153;28;20057;-74
2023/06/09 03:06:19;;;;;;;4.90;3.08;;;11.50;99.90;;;;;;5009352;28;20137;-75
2023/06/09 03:08:45;;;;;;;6.05;3.00;;;11.60;99.90;;;;;;5008210;28;20100;-75
2023/06/09 03:11:11;;;;;;;3.78;2.58;;;11.50;99.90;;;;;;4986855;28;20554;-73
2023/06/09 03:13:37;;;;;;;8.20;3.75;;;11.50;99.90;;;;;;4960659;28;20050;-74
2023/06/09 03:16:03;;;;;;;6.53;3.10;;;11.60;99.90;;;;;;4965438;28;20030;-74
2023/06/09 03:18:29;;;;;;;;;;;11.60;99.90;;;;;;4992927;28;20073;-75
2023/06/09 03:20:56;;;;;;;3.10;2.30;;;11.60;99.90;;;;;;4994834;28;19992;-74
2023/06/09 03:23:22;;;;;;;5.93;3.25;;;11.50;99.90;;;;;;4990633;28;20048;-74
2023/06/09 03:25:51;;;;;;;7.40;3.20;;;11.60;99.90;;;;;;5013713;28;20050;-74
2023/06/09 03:28:18;;;;;;;6.00;2.75;;;11.60;99.90;;;;;;4976175;28;20442;-74
2023/06/09 03:30:43;;;;;;;;;;;11.60;99.90;;;;;;4995989;28;20474;-74
2023/06/09 03:33:11;;;;;;;5.95;2.78;;;11.60;99.90;;;;;;4979184;28;19975;-73
2023/06/09 03:35:37;;;;;;;6.05;2.47;;;11.60;99.90;;;;;;4979655;28;20049;-74
2023/06/09 03:38:03;;;;;;;4.47;2.10;;;11.60;99.90;;;;;;4979075;28;20045;-74
2023/06/09 03:40:28;;;;;;;5.10;3.15;;;11.70;99.90;;;;;;4995415;28;20046;-74
2023/06/09 03:42:54;;;;;;;6.22;2.83;;;11.60;99.90;;;;;;4994727;28;20041;-75
2023/06/09 03:45:20;;;;;;;4.63;2.72;;;11.60;99.90;;;;;;4981464;28;20046;-74
2023/06/09 03:47:46;;;;;;;11.60;5.22;;;11.70;99.90;;;;;;5001349;28;20498;-74
2023/06/09 03:50:12;;;;;;;7.53;4.18;;;11.70;99.90;;;;;;5012939;28;20081;-74
2023/06/09 03:52:38;;;;;;;9.25;4.22;;;11.70;99.90;;;;;;4993622;28;20112;-73
2023/06/09 03:55:04;;;;;;;12.07;5.65;;;11.80;99.90;;;;;;4978592;28;20046;-74
2023/06/09 03:57:30;;;;;;;;;;;11.80;99.90;;;;;;4992346;28;20137;-74
2023/06/09 03:59:55;;;;;;;6.63;3.70;;;11.90;99.90;;;;;;4994516;28;20016;-74
2023/06/09 04:02:21;;;;;;;7.47;3.30;;;11.90;99.90;;;;;;4992877;28;20060;-74
2023/06/09 04:04:47;;;;;;;8.13;3.70;;;12.00;99.90;;;;;;4978054;28;20042;-74
2023/06/09 04:07:14;;;;;;;8.05;3.60;;;12.00;99.90;;;;;;5011656;28;20553;-73
2023/06/09 04:09:40;;;;;;;5.13;3.03;;;12.00;99.90;;;;;;4978470;28;20116;-73
2023/06/09 04:12:07;;;;;;;4.63;3.10;;;12.00;99.90;;;;;;4992748;28;20129;-74
2023/06/09 04:14:33;;;;;;;4.78;2.92;;;12.00;99.90;;;;;;4994219;28;20050;-74
2023/06/09 04:16:59;;;;;;;8.15;3.90;;;12.10;99.90;;;;;;4974464;28;20128;-74
2023/06/09 04:19:25;;;;;;;9.77;4.10;;;12.20;99.90;;;;;;4977612;28;20049;-74
2023/06/09 04:21:51;;;;;;;9.48;4.38;;;12.20;99.90;;;;;;4993495;28;21078;-74
2023/06/09 04:24:16;;;;;;;7.60;3.50;;;12.20;99.90;;;;;;4993369;28;20054;-73
2023/06/09 04:26:43;;;;;;;9.00;3.55;;;12.20;99.90;;;;;;4993478;28;20158;-74
2023/06/09 04:29:10;;;;;;;7.20;3.33;;;12.30;99.90;;;;;;4991758;28;20045;-74
2023/06/09 04:31:42;;;;;;;8.60;3.75;;;12.30;99.90;;;;;;4978948;28;20148;-73
2023/06/09 04:34:12;;;;;;;7.68;4.00;;;12.40;99.90;;;;;;4992411;28;20053;-73
2023/06/09 04:36:39;;;;;;;10.43;3.85;;;12.40;99.90;;;;;;4996904;28;20037;-73
2023/06/09 04:39:09;;;;;;;5.32;3.13;;;12.40;99.90;;;;;;4991647;28;20049;-73
2023/06/09 04:41:35;;;;;;;10.15;4.18;;;12.50;99.90;;;;;;4992963;28;20037;-73
2023/06/09 04:44:04;;;;;;;7.90;3.78;;;12.50;99.90;;;;;;4990970;28;20449;-72
2023/06/09 04:46:31;;;;;;;5.90;3.30;;;12.50;99.90;;;;;;4976701;28;20042;-74
2023/06/09 04:48:59;;;;;;;7.32;3.40;;;12.60;99.90;;;;;;4992786;28;20049;-73
2023/06/09 04:51:26;;;;;;;7.82;4.13;;;12.60;99.90;;;;;;4992693;28;20459;-73
2023/06/09 04:53:53;;;;;;;;;;;12.60;99.90;;;;;;4988776;28;20184;-72
2023/06/09 04:56:19;;;;;;;;;;;12.60;99.90;;;;;;4991706;28;20338;-72
2023/06/09 04:58:46;;;;;;;9.82;3.80;;;12.70;99.90;;;;;;4983289;28;19927;-73
2023/06/09 05:01:13;;;;;;;7.32;3.30;;;12.70;99.90;;;;;;4986169;28;20038;-72
2023/06/09 05:03:40;;;;;;;6.43;3.20;;;12.70;99.90;;;;;;4974401;28;20053;-73
2023/06/09 05:06:06;;;;;;;7.90;3.78;;;12.80;99.90;;;;;;5007151;28;20046;-73
2023/06/09 05:08:32;;;;;;;8.05;4.00;;;12.80;99.90;;;;;;5011109;28;20034;-72
2023/06/09 05:10:57;;;;;;;5.72;3.03;;;12.80;99.90;;;;;;5006257;28;20042;-72
2023/06/09 05:13:23;;;;;;;7.22;3.38;;;12.90;99.90;;;;;;4987016;28;20052;-72
2023/06/09 05:15:49;;;;;;;9.85;4.28;;;13.00;99.90;;;;;;5017698;28;20038;-74
2023/06/09 05:18:19;;;;;;;10.35;3.83;;;13.00;99.90;;;;;;4993440;28;20191;-73
2023/06/09 05:20:44;;;;;;;11.20;4.03;;;13.10;99.90;;;;;;4993369;28;20113;-73
2023/06/09 05:23:10;;;;;;;8.02;4.03;;;13.10;99.90;;;;;;4984327;28;20175;-73
2023/06/09 05:25:37;;;;;;;7.07;4.15;;;13.10;99.90;;;;;;5011431;28;20406;-72
2023/06/09 05:28:03;;;;;;;8.90;4.43;;;13.20;99.90;;;;;;5005320;28;20034;-73
2023/06/09 05:30:28;;;;;;;9.48;4.18;;;13.20;99.90;;;;;;4990954;28;20422;-73
2023/06/09 05:32:54;;;;;;;9.85;3.92;;;13.30;99.90;;;;;;4997572;28;20048;-73
2023/06/09 05:35:20;;;;;;;10.35;4.20;;;13.30;99.90;;;;;;4984837;28;20052;-73
2023/06/09 05:37:50;;;;;;;8.43;4.00;;;13.30;99.90;;;;;;4973081;28;21966;-73
2023/06/09 05:40:16;;;;;;;7.63;3.83;;;13.40;99.90;;;;;;5003678;28;20050;-73
2023/06/09 05:42:42;;;;;;;8.65;4.00;;;13.40;99.90;;;;;;4988271;28;20128;-73
2023/06/09 05:45:08;;;;;;;6.60;3.13;;;13.50;99.90;;;;;;4985266;28;20128;-73
2023/06/09 05:47:34;;;;;;;7.60;3.47;;;13.60;99.90;;;;;;4976910;28;20046;-72
2023/06/09 05:50:00;;;;;;;;;;;13.70;99.90;;;;;;4989843;28;20502;-73
2023/06/09 05:52:25;;;;;;;6.75;3.55;;;14.00;99.90;;;;;;4986676;28;19926;-72
2023/06/09 05:54:51;;;;;;;5.78;3.50;;;14.20;99.90;;;;;;4968746;28;20038;-72
2023/06/09 05:57:19;;;;;;;5.40;2.63;;;14.20;99.90;;;;;;4981755;28;20052;-72
2023/06/09 05:59:44;;;;;;;5.47;2.80;;;14.40;99.90;;;;;;4988912;28;20592;-71
2023/06/09 06:02:12;;;;;;;6.70;3.20;;;14.40;99.90;;;;;;5003207;28;20029;-72
2023/06/09 06:04:38;;;;;;;8.02;3.45;;;14.50;99.90;;;;;;4992537;28;20111;-72
2023/06/09 06:07:04;;;;;;;4.38;2.85;;;14.60;99.90;;;;;;5002771;28;20042;-72
2023/06/09 06:09:30;;;;;;;7.00;3.42;;;14.70;99.90;;;;;;4968612;28;20037;-72
2023/06/09 06:11:56;;;;;;;5.22;2.83;;;14.90;99.90;;;;;;4973193;28;21095;-72
2023/06/09 06:14:22;;;;;;;5.43;2.60;;;15.10;99.90;;;;;;4976852;28;20046;-72
2023/06/09 06:16:47;;;;;;;5.80;2.40;;;15.20;99.90;;;;;;5001302;28;20045;-72
2023/06/09 06:19:14;;;;;;;7.47;3.28;;;15.30;99.90;;;;;;4975487;28;20045;-72
2023/06/09 06:21:42;;;;;;;9.05;3.88;;;15.30;99.90;;;;;;4980624;28;20045;-72
2023/06/09 06:24:11;;;;;;;7.10;3.70;;;15.30;99.90;;;;;;5000461;28;20495;-72
2023/06/09 06:26:37;;;;;;;7.05;3.05;;;15.30;99.90;;;;;;4989239;28;20042;-72
2023/06/09 06:29:03;;;;;;;7.18;3.60;;;15.30;99.90;;;;;;4985694;28;20045;-71
2023/06/09 06:31:29;;;;;;;9.27;4.05;;;15.30;99.90;;;;;;4985708;28;20121;-71
2023/06/09 06:33:55;;;;;;;9.57;3.95;;;15.30;99.90;;;;;;4968859;28;20052;-70
2023/06/09 06:36:21;;;;;;;6.65;3.40;;;15.40;99.90;;;;;;4985426;28;20050;-71
2023/06/09 06:38:48;;;;;;;8.43;3.72;;;15.60;99.90;;;;;;4971054;28;20112;-71
2023/06/09 06:41:14;;;;;;;11.05;4.15;;;15.70;99.90;;;;;;4979529;28;20133;-72
2023/06/09 06:43:43;;;;;;;8.70;4.15;;;15.70;69.10;;;;;;4987046;28;20482;-72
2023/06/09 06:46:12;;;;;;;8.68;3.95;;;15.90;89.50;;;;;;4985630;28;20046;-71
2023/06/09 06:48:40;;;;;;;9.75;4.05;;;16.00;1.00;;;;;;5004604;28;20134;-72
2023/06/09 06:51:07;;;;;;;8.25;3.58;;;16.10;35.90;;;;;;4971013;28;20042;-72
2023/06/09 06:53:35;;;;;;;6.38;3.40;;;16.20;1.00;;;;;;4992247;28;20045;-72
2023/06/09 06:56:01;;;;;;;6.72;2.90;;;16.30;99.90;;;;;;4991153;28;20038;-73
2023/06/09 06:58:28;;;;;;;4.97;3.00;;;16.30;99.90;;;;;;4987396;28;20048;-73
2023/06/09 07:00:56;;;;;;;9.20;3.55;;;16.50;99.90;;;;;;4974464;28;20253;-73
2023/06/09 07:03:26;;;;;;;7.13;3.13;;;16.50;99.90;;;;;;4988125;28;20145;-72
2023/06/09 07:05:53;;;;;;;9.98;3.63;;;16.70;99.90;;;;;;5007352;28;20818;-73
2023/06/09 07:08:18;;;;;;;6.72;2.85;;;16.80;1.00;;;;;;4993407;28;20104;-72
2023/06/09 07:10:44;;;;;;;6.57;2.90;;;16.90;99.90;;;;;;5011069;28;20526;-71
2023/06/09 07:13:10;;;;;;;7.10;3.05;;;17.00;1.00;;;;;;4980983;28;20050;-74
2023/06/09 07:15:37;;;;;;;6.88;2.80;;;17.10;99.90;;;;;;4996201;28;20045;-74
2023/06/09 07:18:03;;;;;;;6.68;2.90;;;17.30;99.90;;;;;;4994684;28;20176;-74
2023/06/09 07:20:29;;;;;;;5.88;3.00;;;17.40;99.90;;;;;;4993175;28;20069;-73
2023/06/09 07:22:55;;;;;;;6.80;3.70;;;17.40;99.90;;;;;;4983710;28;20499;-73
2023/06/09 07:25:20;;;;;;;12.10;3.80;;;17.50;99.90;;;;;;4960172;28;20053;-73
2023/06/09 07:27:46;;;;;;;7.72;3.15;;;17.60;1.00;;;;;;4962410;28;20074;-72
2023/06/09 07:30:13;;;;;;;8.80;4.18;;;17.70;99.90;;;;;;5015453;28;20042;-73
2023/06/09 07:32:41;;;;;;;6.45;3.40;;;17.90;99.90;;;;;;4979754;28;20041;-73
2023/06/09 07:35:08;;;;;;;6.55;3.00;;;17.90;99.90;;;;;;4979246;28;20060;-73
2023/06/09 07:37:38;;;;;;;5.45;3.10;;;18.00;99.90;;;;;;4995940;28;20069;-74
2023/06/09 07:40:08;;;;;;;5.22;3.00;;;18.20;38.40;;;;;;4995489;28;20046;-72
2023/06/09 07:42:34;;;;;;;7.40;3.35;;;18.40;1.00;;;;;;4996040;28;20171;-73
2023/06/09 07:45:00;;;;;;;;;;;18.50;99.90;;;;;;4992041;28;20481;-73
2023/06/09 07:47:25;;;;;;;5.65;3.15;;;18.50;1.00;;;;;;4990294;28;19925;-74
2023/06/09 07:49:51;;;;;;;;;;;18.60;99.90;;;;;;4978920;28;20050;-72
2023/06/09 07:52:17;;;;;;;5.82;3.20;;;18.70;99.90;;;;;;4994269;28;19925;-71
2023/06/09 07:54:42;;;;;;;;;;;18.80;99.90;;;;;;4991867;28;20390;-72
2023/06/09 07:57:08;;;;;;;8.50;3.85;;;18.90;99.90;;;;;;4988790;28;19952;-72
2023/06/09 07:59:33;;;;;;;;;;;19.10;99.90;;;;;;4995233;28;20406;-72
2023/06/09 08:01:59;;;;;;;5.65;2.88;;;19.20;99.90;;;;;;5007666;28;19925;-72
2023/06/09 08:04:26;;;;;;;;;;;19.50;1.00;;;;;;5011519;28;20181;-72
2023/06/09 08:06:52;;;;;;;6.00;3.03;;;19.70;99.90;;;;;;4990576;28;19917;-72
2023/06/09 08:09:17;;;;;;;;;;;19.80;99.90;;;;;;5011737;28;20067;-73
2023/06/09 08:11:43;;;;;;;7.93;3.47;;;20.00;99.90;;;;;;4996943;28;20356;-72
2023/06/09 08:14:09;;;;;;;;;;;20.10;99.90;;;;;;5007391;28;20049;-72
2023/06/09 08:16:35;;;;;;;6.65;3.17;;;20.20;99.90;;;;;;4979055;28;20031;-72
2023/06/09 08:19:00;;;;;;;;;;;20.40;18.50;;;;;;4993473;28;20034;-72
2023/06/09 08:21:26;;;;;;;5.68;2.85;;;20.50;99.90;;;;;;4969642;28;19918;-72
2023/06/09 08:23:52;;;;;;;6.40;2.92;;;20.70;99.90;;;;;;4975107;28;20045;-73
2023/06/09 08:26:18;;;;;;;;;;;20.80;99.90;;;;;;4990412;28;20049;-72
2023/06/09 08:28:44;;;;;;;6.13;2.90;;;21.00;1.00;;;;;;4991503;28;20394;-72
2023/06/09 08:31:09;;;;;;;7.03;3.22;;;21.20;99.90;;;;;;4990853;28;20066;-73
2023/06/09 08:33:35;;;;;;;;;;;21.30;99.90;;;;;;4986881;28;20379;-73
2023/06/09 08:36:03;;;;;;;7.00;3.20;;;21.40;99.90;;;;;;5012566;28;19975;-72
2023/06/09 08:38:36;;;;;;;5.78;3.10;;;21.60;99.90;;;;;;4994665;28;20060;-72
2023/06/09 08:41:08;;;;;;;5.28;3.08;;;21.80;99.90;;;;;;4994363;28;20050;-72
2023/06/09 08:43:34;;;;;;;5.75;2.53;;;22.00;38.90;;;;;;4992023;28;20064;-71
2023/06/09 08:46:03;;;;;;;4.53;2.50;;;22.20;56.70;;;;;;4991124;28;20052;-73
2023/06/09 08:48:30;;;;;;;3.45;2.20;;;22.40;1.00;;;;;;4988800;28;20048;-73
2023/06/09 08:50:57;;;;;;;4.05;2.20;;;22.60;99.90;;;;;;4977031;28;20077;-72
2023/06/09 08:53:24;;;;;;;4.72;2.55;;;22.70;99.90;;;;;;4994457;28;20096;-72
2023/06/09 08:55:53;;;;;;;5.28;2.85;;;22.80;1.00;;;;;;4991890;28;20125;-72
2023/06/09 08:58:20;;;;;;;4.30;2.50;;;22.80;1.00;;;;;;4990342;28;20046;-72
2023/06/09 09:00:49;;;;;;;4.15;2.20;;;22.90;99.90;;;;;;4993494;28;20108;-72
2023/06/09 09:03:16;;;;;;;4.35;2.40;;;23.00;35.90;;;;;;5011226;28;20391;-72
2023/06/09 09:05:43;;;;;;;3.00;1.88;;;23.20;99.90;;;;;;4976916;28;20107;-73
2023/06/09 09:08:08;;;;;;;3.97;2.15;;;23.40;99.90;;;;;;4971640;28;20038;-72
2023/06/09 09:10:34;;;;;;;3.15;2.00;;;23.60;99.90;;;;;;4974354;28;20046;-72
2023/06/09 09:13:00;;;;;;;3.83;2.20;;;23.70;99.90;;;;;;4966301;28;20378;-72
2023/06/09 09:15:25;;;;;;;2.72;1.70;;;23.80;99.90;;;;;;5005704;28;20069;-72
2023/06/09 09:17:51;;;;;;;6.05;2.40;;;23.90;99.90;;;;;;4989941;28;20086;-73
2023/06/09 09:20:17;;;;;;;3.47;2.15;;;24.10;99.90;;;;;;4976342;28;20040;-77
2023/06/09 09:22:48;;;;;;;5.60;2.20;;;24.30;99.90;;;;;;4989920;28;20052;-77
2023/06/09 09:25:21;;;;;;;5.60;2.67;;;24.40;99.90;;;;;;4988348;28;20057;-76
2023/06/09 09:28:10;;;;;;;4.60;2.50;;;24.50;99.90;;;;;;4990943;28;20146;-78
2023/06/09 09:30:50;;;;;;;3.53;2.30;;;24.50;99.90;;;;;;4977319;28;20052;-72
2023/06/09 09:33:27;;;;;;;4.22;2.55;;;24.80;99.90;;;;;;5010184;28;20053;-78
2023/06/09 09:35:57;;;;;;;5.90;2.78;;;24.80;99.90;;;;;;5006158;28;20507;-77
2023/06/09 09:38:28;;;;;;;3.67;2.20;;;24.80;99.90;;;;;;4990301;28;20101;-78
2023/06/09 09:40:56;;;;;;;4.95;2.67;;;24.90;99.90;;;;;;4993100;28;20467;-78
2023/06/09 09:43:25;;;;;;;4.63;2.58;;;25.00;99.90;;;;;;4970223;28;20053;-78
2023/06/09 09:45:52;;;;;;;4.80;1.92;;;25.10;90.00;;;;;;4992402;28;20041;-77
2023/06/09 09:48:21;;;;;;;4.00;2.20;;;25.30;99.90;;;;;;4992195;28;20496;-77
2023/06/09 09:50:51;;;;;;;3.33;2.03;;;25.60;99.90;;;;;;4993366;28;21722;-77
2023/06/09 09:53:17;;;;;;;2.53;1.77;;;25.70;52.60;;;;;;4992463;28;20038;-77
2023/06/09 09:55:45;;;;;;;3.30;1.90;;;25.80;1.00;;;;;;4994827;28;20143;-77
2023/06/09 09:58:12;;;;;;;4.40;2.00;;;25.90;1.00;;;;;;4995082;28;20046;-78
2023/06/09 10:00:40;;;;;;;3.70;2.22;;;25.90;64.20;;;;;;4992543;28;20073;-77
2023/06/09 10:03:13;;;;;;;3.95;2.00;;;26.10;19.80;;;;;;4989558;28;20037;-77
2023/06/09 10:05:45;;;;;;;3.15;1.70;;;26.20;1.00;;;;;;4999744;28;20339;-77
2023/06/09 10:08:14;;;;;;;3.63;2.15;;;26.30;1.00;;;;;;4988459;28;20107;-77
2023/06/09 10:10:42;;;;;;;2.40;1.80;;;26.50;12.80;;;;;;4994093;28;20077;-77
2023/06/09 10:13:07;;;;;;;3.05;1.90;;;26.70;14.20;;;;;;4995615;28;20113;-78
2023/06/09 10:15:34;;;;;;;3.58;2.00;;;26.80;1.00;;;;;;4975594;28;20138;-77
2023/06/09 10:18:00;;;;;;;5.15;2.05;;;27.00;1.00;;;;;;4990696;28;20080;-78
2023/06/09 10:20:26;;;;;;;4.13;2.38;;;27.10;6.40;;;;;;4991056;28;20100;-77
2023/06/09 10:22:53;;;;;;;3.92;2.33;;;27.20;1.00;;;;;;4973821;28;20050;-78
2023/06/09 10:25:19;;;;;;;4.63;2.40;;;27.20;1.00;;;;;;5007998;28;20539;-78
2023/06/09 10:27:49;;;;;;;4.32;1.80;;;27.10;1.00;;;;;;4991979;28;20038;-77
2023/06/09 10:30:16;;;;;;;2.80;1.98;;;27.40;1.00;;;;;;5011115;28;20092;-78
2023/06/09 10:33:08;;;;;;;4.10;2.17;;;27.40;1.00;;;;;;4993439;28;20050;-79
2023/06/09 10:35:37;;;;;;;4.05;2.00;;;27.50;1.00;;;;;;5010663;28;20120;-78
2023/06/09 10:38:35;;;;;;;2.80;2.00;;;27.50;1.00;;;;;;4993080;28;20105;-78
2023/06/09 10:41:13;;;;;;;3.55;2.22;;;27.60;1.00;;;;;;4949052;28;20057;-78
2023/06/09 10:43:53;;;;;;;2.45;1.90;;;27.70;1.00;;;;;;4992683;28;20050;-79
2023/06/09 10:46:38;;;;;;;3.50;1.90;;;27.80;1.00;;;;;;5010599;28;20122;-78
2023/06/09 10:49:04;;;;;;;2.25;1.83;;;28.00;1.00;;;;;;4995520;28;20535;-78
2023/06/09 10:51:29;;;;;;;4.00;2.00;;;28.10;1.00;;;;;;5010953;28;20078;-78
2023/06/09 10:54:07;;;;;;;3.65;2.40;;;28.00;1.00;;;;;;4993756;28;20084;-78
2023/06/09 10:56:35;;;;;;;3.33;2.53;;;28.10;1.00;;;;;;4993557;28;20044;-78
2023/06/09 10:59:00;;;;;;;3.42;2.40;;;28.00;1.00;;;;;;4991986;28;20490;-78
2023/06/09 11:01:26;;;;;;;5.05;2.60;;;28.10;1.00;;;;;;5009056;28;20121;-77
2023/06/09 11:03:52;;;;;;;3.15;2.05;;;28.00;1.00;;;;;;4976499;28;20048;-77
2023/06/09 11:06:17;;;;;;;3.72;2.13;;;28.10;1.00;;;;;;4970642;28;20421;-78
2023/06/09 11:09:14;;;;;;;4.13;2.47;;;28.30;1.00;;;;;;4992260;28;20074;-78
2023/06/09 11:11:49;;;;;;;3.60;2.33;;;28.40;1.00;;;;;;5003835;28;20121;-78
2023/06/09 11:14:43;;;;;;;4.60;2.70;;;28.50;1.00;;;;;;4992721;28;20046;-77
2023/06/09 11:17:19;;;;;;;3.83;2.50;;;28.40;1.00;;;;;;4979509;28;20054;-78
2023/06/09 11:19:45;;;;;;;;;;;28.50;1.00;;;;;;4992325;28;20742;-78
2023/06/09 11:22:12;;;;;;;3.50;2.43;;;28.70;1.00;;;;;;4992417;28;19928;-78
2023/06/09 11:24:48;;;;;;;5.30;2.60;;;28.80;1.00;;;;;;4991283;28;20081;-79
2023/06/09 11:27:22;;;;;;;4.68;2.65;;;28.80;1.00;;;;;;4992579;28;20058;-77
2023/06/09 11:30:30;;;;;;;3.72;2.40;;;28.80;1.00;;;;;;5007472;28;20229;-78
2023/06/09 11:33:04;;;;;;;3.55;2.47;;;28.80;99.90;;;;;;4914687;29;20066;-76
2023/06/09 11:37:58;;;;;;;3.08;2.20;;;28.80;99.90;;;;;;4954780;28;20049;-78
2023/06/09 11:40:25;;;;;;;3.85;2.42;;;28.90;99.90;;;;;;4997438;28;20445;-78
2023/06/09 11:42:51;;;;;;;3.58;2.35;;;29.20;99.90;;;;;;5003738;28;20038;-78
2023/06/09 11:45:17;;;;;;;3.72;2.20;;;29.30;99.90;;;;;;4980070;28;20045;-78
2023/06/09 11:47:45;;;;;;;3.70;2.50;;;29.40;99.90;;;;;;4995970;28;20037;-78
2023/06/09 11:50:13;;;;;;;3.22;2.60;;;29.40;99.90;;;;;;4995875;28;20060;-78
2023/06/09 11:52:44;;;;;;;4.63;2.63;;;29.20;99.90;;;;;;4991866;28;20046;-78
2023/06/09 11:55:13;;;;;;;3.55;2.60;;;29.20;99.90;;;;;;5020268;28;20065;-77
2023/06/09 11:57:39;;;;;;;5.85;2.60;;;29.20;99.90;;;;;;4991617;28;20045;-77
2023/06/09 12:00:12;;;;;;;3.42;2.50;;;29.20;99.90;;;;;;5002089;28;20069;-77
2023/06/09 12:02:42;;;;;;;3.25;2.20;;;29.20;99.90;;;;;;4969412;28;20049;-77
2023/06/09 12:05:10;;;;;;;3.60;2.42;;;29.40;99.90;;;;;;4995588;28;20813;-77
2023/06/09 12:07:36;;;;;;;4.43;2.50;;;29.40;99.90;;;;;;4960616;28;20038;-76
2023/06/09 12:10:03;;;;;;;4.85;2.63;;;29.50;99.90;;;;;;4975098;28;20129;-76
2023/06/09 12:12:29;;;;;;;4.35;2.90;;;29.40;99.90;;;;;;4980952;28;20053;-77
2023/06/09 12:14:55;;;;;;;4.03;2.50;;;29.50;99.90;;;;;;4993767;28;20046;-76
2023/06/09 12:17:21;;;;;;;3.03;2.10;;;29.60;99.90;;;;;;4993339;28;20058;-77
2023/06/09 12:19:49;;;;;;;3.45;2.47;;;29.70;99.90;;;;;;4994198;28;20515;-74
2023/06/09 12:22:16;;;;;;;5.68;3.17;;;29.70;99.90;;;;;;5012065;28;20535;-74
2023/06/09 12:24:43;;;;;;;4.10;2.60;;;29.70;99.90;;;;;;4978230;28;20061;-74
2023/06/09 12:27:11;;;;;;;3.78;2.53;;;29.50;99.90;;;;;;4994541;28;20061;-74
2023/06/09 12:29:37;;;;;;;4.93;2.88;;;29.60;99.90;;;;;;4993411;28;20050;-73
2023/06/09 12:32:04;;;;;;;5.43;2.63;;;29.60;99.90;;;;;;4993741;28;20046;-74
2023/06/09 12:34:30;;;;;;;4.22;2.55;;;29.60;99.90;;;;;;5010855;28;20045;-74
2023/06/09 12:36:59;;;;;;;3.22;2.50;;;29.70;99.90;;;;;;5012645;28;20042;-74
2023/06/09 12:39:30;;;;;;;2.80;2.20;;;29.80;99.90;;;;;;4994647;28;20513;-73
2023/06/09 12:41:55;;;;;;;4.55;2.70;;;29.80;99.90;;;;;;4994346;28;20048;-73
2023/06/09 12:44:24;;;;;;;3.08;2.50;;;29.70;99.90;;;;;;4994676;28;20041;-73
2023/06/09 12:46:56;;;;;;;3.28;2.35;;;29.70;99.90;;;;;;4994725;28;20037;-74
2023/06/09 12:49:30;;;;;;;2.85;2.40;;;29.60;99.90;;;;;;4994264;28;20135;-73
2023/06/09 12:51:56;;;;;;;4.07;2.20;;;29.70;99.90;;;;;;4994653;28;20041;-73
2023/06/09 12:54:22;;;;;;;3.30;2.70;;;29.80;99.90;;;;;;4994499;28;20049;-74
2023/06/09 12:56:48;;;;;;;2.90;2.20;;;29.80;99.90;;;;;;4994937;28;20050;-73
2023/06/09 12:59:14;;;;;;;3.58;2.25;;;30.00;99.90;;;;;;5012295;28;20525;-73
2023/06/09 13:01:39;;;;;;;5.80;2.22;;;30.00;99.90;;;;;;4994435;28;20112;-73